sensor_id;sensor_type;location;lat;lon;timestamp;P1;durP1;ratioP1;P2;durP2;ratioP2
9860;SDS011;4969;52.304;4.968;2023-07-24T00:02:24;7.57;;;6.28;;
9860;SDS011;4969;52.304;4.968;2023-07-24T00:04:51;6.07;;;5.57;;
9860;SDS011;4969;52.304;4.968;2023-07-24T00:07:17;7.00;;;6.43;;
9860;SDS011;4969;52.304;4.968;2023-07-24T00:09:44;6.20;;;5.70;;
9860;SDS011;4969;52.304;4.968;2023-07-24T00:12:11;6.65;;;6.15;;
9860;SDS011;4969;52.304;4.968;2023-07-24T00:14:37;5.50;;;5.00;;
9860;SDS011;4969;52.304;4.968;2023-07-24T00:17:04;5.60;;;5.10;;
9860;SDS011;4969;52.304;4.968;2023-07-24T00:19:32;5.40;;;5.00;;
9860;SDS011;4969;52.304;4.968;2023-07-24T00:21:59;5.60;;;5.05;;
9860;SDS011;4969;52.304;4.968;2023-07-24T00:24:26;5.82;;;5.32;;
9860;SDS011;4969;52.304;4.968;2023-07-24T00:26:53;5.10;;;4.70;;
9860;SDS011;4969;52.304;4.968;2023-07-24T00:29:19;4.93;;;4.53;;
9860;SDS011;4969;52.304;4.968;2023-07-24T00:31:46;5.68;;;5.25;;
9860;SDS011;4969;52.304;4.968;2023-07-24T00:34:13;5.95;;;5.45;;
9860;SDS011;4969;52.304;4.968;2023-07-24T00:36:41;5.80;;;5.25;;
9860;SDS011;4969;52.304;4.968;2023-07-24T00:39:07;5.53;;;5.03;;
9860;SDS011;4969;52.304;4.968;2023-07-24T00:41:34;5.68;;;5.18;;
9860;SDS011;4969;52.304;4.968;2023-07-24T00:44:00;5.80;;;5.30;;
9860;SDS011;4969;52.304;4.968;2023-07-24T00:46:27;6.57;;;5.97;;
9860;SDS011;4969;52.304;4.968;2023-07-24T00:48:57;5.70;;;5.20;;
9860;SDS011;4969;52.304;4.968;2023-07-24T00:51:24;5.53;;;5.13;;
9860;SDS011;4969;52.304;4.968;2023-07-24T00:53:53;6.53;;;5.93;;
9860;SDS011;4969;52.304;4.968;2023-07-24T00:56:21;5.28;;;4.88;;
9860;SDS011;4969;52.304;4.968;2023-07-24T00:58:48;4.50;;;4.10;;
9860;SDS011;4969;52.304;4.968;2023-07-24T01:03:42;5.68;;;4.90;;
9860;SDS011;4969;52.304;4.968;2023-07-24T01:06:09;5.18;;;4.78;;
9860;SDS011;4969;52.304;4.968;2023-07-24T01:08:36;5.72;;;5.15;;
9860;SDS011;4969;52.304;4.968;2023-07-24T01:11:05;5.10;;;4.70;;
9860;SDS011;4969;52.304;4.968;2023-07-24T01:13:42;4.82;;;4.43;;
9860;SDS011;4969;52.304;4.968;2023-07-24T01:16:14;4.97;;;4.57;;
9860;SDS011;4969;52.304;4.968;2023-07-24T01:18:44;6.20;;;5.60;;
9860;SDS011;4969;52.304;4.968;2023-07-24T01:21:11;5.85;;;5.35;;
9860;SDS011;4969;52.304;4.968;2023-07-24T01:23:44;6.13;;;5.32;;
9860;SDS011;4969;52.304;4.968;2023-07-24T01:26:19;5.35;;;4.85;;
9860;SDS011;4969;52.304;4.968;2023-07-24T01:28:48;5.40;;;4.97;;
9860;SDS011;4969;52.304;4.968;2023-07-24T01:31:15;5.75;;;5.25;;
9860;SDS011;4969;52.304;4.968;2023-07-24T01:33:42;4.70;;;4.40;;
9860;SDS011;4969;52.304;4.968;2023-07-24T01:36:09;5.47;;;5.07;;
9860;SDS011;4969;52.304;4.968;2023-07-24T01:38:36;5.25;;;4.85;;
9860;SDS011;4969;52.304;4.968;2023-07-24T01:41:04;5.20;;;4.80;;
9860;SDS011;4969;52.304;4.968;2023-07-24T01:43:32;5.75;;;5.35;;
9860;SDS011;4969;52.304;4.968;2023-07-24T01:45:58;4.82;;;4.43;;
9860;SDS011;4969;52.304;4.968;2023-07-24T01:48:25;5.80;;;4.75;;
9860;SDS011;4969;52.304;4.968;2023-07-24T01:50:52;5.40;;;5.00;;
9860;SDS011;4969;52.304;4.968;2023-07-24T01:53:18;5.75;;;4.95;;
9860;SDS011;4969;52.304;4.968;2023-07-24T01:55:45;5.85;;;5.38;;
9860;SDS011;4969;52.304;4.968;2023-07-24T01:58:11;5.75;;;5.22;;
9860;SDS011;4969;52.304;4.968;2023-07-24T02:00:39;4.53;;;4.22;;
9860;SDS011;4969;52.304;4.968;2023-07-24T02:03:06;6.10;;;5.60;;
9860;SDS011;4969;52.304;4.968;2023-07-24T02:05:32;5.10;;;4.78;;
9860;SDS011;4969;52.304;4.968;2023-07-24T02:07:59;6.30;;;5.80;;
9860;SDS011;4969;52.304;4.968;2023-07-24T02:10:26;6.18;;;5.68;;
9860;SDS011;4969;52.304;4.968;2023-07-24T02:12:52;5.85;;;5.35;;
9860;SDS011;4969;52.304;4.968;2023-07-24T02:15:19;6.47;;;5.88;;
9860;SDS011;4969;52.304;4.968;2023-07-24T02:17:47;6.22;;;5.63;;
9860;SDS011;4969;52.304;4.968;2023-07-24T02:20:13;6.95;;;5.93;;
9860;SDS011;4969;52.304;4.968;2023-07-24T02:22:40;7.35;;;6.82;;
9860;SDS011;4969;52.304;4.968;2023-07-24T02:25:07;6.97;;;6.38;;
9860;SDS011;4969;52.304;4.968;2023-07-24T02:27:34;7.35;;;6.65;;
9860;SDS011;4969;52.304;4.968;2023-07-24T02:30:01;7.43;;;6.75;;
9860;SDS011;4969;52.304;4.968;2023-07-24T02:32:28;5.88;;;5.38;;
9860;SDS011;4969;52.304;4.968;2023-07-24T02:34:56;7.75;;;6.18;;
9860;SDS011;4969;52.304;4.968;2023-07-24T02:37:22;5.95;;;5.45;;
9860;SDS011;4969;52.304;4.968;2023-07-24T02:39:49;7.13;;;6.47;;
9860;SDS011;4969;52.304;4.968;2023-07-24T02:42:17;8.55;;;6.72;;
9860;SDS011;4969;52.304;4.968;2023-07-24T02:44:43;7.50;;;6.60;;
9860;SDS011;4969;52.304;4.968;2023-07-24T02:47:10;6.28;;;5.70;;
9860;SDS011;4969;52.304;4.968;2023-07-24T02:49:37;7.10;;;6.40;;
9860;SDS011;4969;52.304;4.968;2023-07-24T02:52:05;7.32;;;6.53;;
9860;SDS011;4969;52.304;4.968;2023-07-24T02:54:32;5.88;;;5.38;;
9860;SDS011;4969;52.304;4.968;2023-07-24T02:56:58;6.57;;;5.72;;
9860;SDS011;4969;52.304;4.968;2023-07-24T02:59:25;8.57;;;6.68;;
9860;SDS011;4969;52.304;4.968;2023-07-24T03:01:52;11.10;;;6.57;;
9860;SDS011;4969;52.304;4.968;2023-07-24T03:04:19;7.03;;;6.32;;
9860;SDS011;4969;52.304;4.968;2023-07-24T03:06:45;6.97;;;6.38;;
9860;SDS011;4969;52.304;4.968;2023-07-24T03:09:13;6.68;;;5.53;;
9860;SDS011;4969;52.304;4.968;2023-07-24T03:11:40;6.78;;;6.10;;
9860;SDS011;4969;52.304;4.968;2023-07-24T03:14:06;7.53;;;5.68;;
9860;SDS011;4969;52.304;4.968;2023-07-24T03:16:32;6.50;;;5.43;;
9860;SDS011;4969;52.304;4.968;2023-07-24T03:18:58;5.72;;;4.47;;
9860;SDS011;4969;52.304;4.968;2023-07-24T03:21:25;7.30;;;6.00;;
9860;SDS011;4969;52.304;4.968;2023-07-24T03:23:52;6.20;;;5.60;;
9860;SDS011;4969;52.304;4.968;2023-07-24T03:26:20;6.30;;;5.70;;
9860;SDS011;4969;52.304;4.968;2023-07-24T03:28:46;7.38;;;6.60;;
9860;SDS011;4969;52.304;4.968;2023-07-24T03:31:13;6.05;;;5.22;;
9860;SDS011;4969;52.304;4.968;2023-07-24T03:33:40;6.40;;;5.80;;
9860;SDS011;4969;52.304;4.968;2023-07-24T03:36:06;5.78;;;5.18;;
9860;SDS011;4969;52.304;4.968;2023-07-24T03:38:33;5.25;;;4.60;;
9860;SDS011;4969;52.304;4.968;2023-07-24T03:40:59;5.53;;;4.85;;
9860;SDS011;4969;52.304;4.968;2023-07-24T03:43:27;5.35;;;4.78;;
9860;SDS011;4969;52.304;4.968;2023-07-24T03:45:54;6.13;;;5.57;;
9860;SDS011;4969;52.304;4.968;2023-07-24T03:48:21;6.30;;;5.68;;
9860;SDS011;4969;52.304;4.968;2023-07-24T03:50:49;5.75;;;5.20;;
9860;SDS011;4969;52.304;4.968;2023-07-24T03:53:16;5.97;;;5.00;;
9860;SDS011;4969;52.304;4.968;2023-07-24T03:55:42;6.00;;;5.20;;
9860;SDS011;4969;52.304;4.968;2023-07-24T03:58:09;5.85;;;5.35;;
9860;SDS011;4969;52.304;4.968;2023-07-24T04:00:37;6.60;;;5.63;;
9860;SDS011;4969;52.304;4.968;2023-07-24T04:03:03;7.25;;;6.25;;
9860;SDS011;4969;52.304;4.968;2023-07-24T04:05:30;7.07;;;6.20;;
9860;SDS011;4969;52.304;4.968;2023-07-24T04:07:57;8.55;;;5.18;;
9860;SDS011;4969;52.304;4.968;2023-07-24T04:10:23;7.32;;;5.90;;
9860;SDS011;4969;52.304;4.968;2023-07-24T04:12:51;6.32;;;5.72;;
9860;SDS011;4969;52.304;4.968;2023-07-24T04:15:17;6.43;;;5.82;;
9860;SDS011;4969;52.304;4.968;2023-07-24T04:17:45;6.18;;;5.57;;
9860;SDS011;4969;52.304;4.968;2023-07-24T04:20:12;5.63;;;5.13;;
9860;SDS011;4969;52.304;4.968;2023-07-24T04:22:38;7.25;;;6.15;;
9860;SDS011;4969;52.304;4.968;2023-07-24T04:25:05;10.30;;;6.85;;
9860;SDS011;4969;52.304;4.968;2023-07-24T04:27:32;7.13;;;6.13;;
9860;SDS011;4969;52.304;4.968;2023-07-24T04:29:59;10.25;;;6.50;;
9860;SDS011;4969;52.304;4.968;2023-07-24T04:32:26;8.10;;;5.53;;
9860;SDS011;4969;52.304;4.968;2023-07-24T04:34:54;7.20;;;6.22;;
9860;SDS011;4969;52.304;4.968;2023-07-24T04:37:20;8.65;;;5.80;;
9860;SDS011;4969;52.304;4.968;2023-07-24T04:39:47;8.48;;;6.60;;
9860;SDS011;4969;52.304;4.968;2023-07-24T04:42:13;5.70;;;5.18;;
9860;SDS011;4969;52.304;4.968;2023-07-24T04:44:40;6.85;;;6.07;;
9860;SDS011;4969;52.304;4.968;2023-07-24T04:47:06;7.90;;;6.35;;
9860;SDS011;4969;52.304;4.968;2023-07-24T04:49:34;14.35;;;6.82;;
9860;SDS011;4969;52.304;4.968;2023-07-24T04:52:02;10.77;;;6.88;;
9860;SDS011;4969;52.304;4.968;2023-07-24T04:54:30;10.07;;;6.20;;
9860;SDS011;4969;52.304;4.968;2023-07-24T04:56:56;8.75;;;6.18;;
9860;SDS011;4969;52.304;4.968;2023-07-24T04:59:23;7.05;;;5.63;;
9860;SDS011;4969;52.304;4.968;2023-07-24T05:01:50;9.90;;;6.28;;
9860;SDS011;4969;52.304;4.968;2023-07-24T05:04:16;8.57;;;6.07;;
9860;SDS011;4969;52.304;4.968;2023-07-24T05:06:43;7.35;;;5.95;;
9860;SDS011;4969;52.304;4.968;2023-07-24T05:09:11;6.45;;;5.82;;
9860;SDS011;4969;52.304;4.968;2023-07-24T05:11:37;10.88;;;6.82;;
9860;SDS011;4969;52.304;4.968;2023-07-24T05:14:04;8.20;;;6.55;;
9860;SDS011;4969;52.304;4.968;2023-07-24T05:16:30;8.93;;;5.75;;
9860;SDS011;4969;52.304;4.968;2023-07-24T05:18:57;8.88;;;6.55;;
9860;SDS011;4969;52.304;4.968;2023-07-24T05:21:24;9.32;;;6.55;;
9860;SDS011;4969;52.304;4.968;2023-07-24T05:23:50;8.80;;;6.22;;
9860;SDS011;4969;52.304;4.968;2023-07-24T05:26:18;9.73;;;6.70;;
9860;SDS011;4969;52.304;4.968;2023-07-24T05:28:47;6.93;;;5.15;;
9860;SDS011;4969;52.304;4.968;2023-07-24T05:31:13;9.48;;;5.70;;
9860;SDS011;4969;52.304;4.968;2023-07-24T05:33:40;7.93;;;5.63;;
9860;SDS011;4969;52.304;4.968;2023-07-24T05:36:07;8.25;;;6.32;;
9860;SDS011;4969;52.304;4.968;2023-07-24T05:38:33;7.20;;;6.03;;
9860;SDS011;4969;52.304;4.968;2023-07-24T05:41:03;9.00;;;6.28;;
9860;SDS011;4969;52.304;4.968;2023-07-24T05:43:31;7.65;;;5.45;;
9860;SDS011;4969;52.304;4.968;2023-07-24T05:45:58;5.07;;;4.25;;
9860;SDS011;4969;52.304;4.968;2023-07-24T05:48:25;7.13;;;5.80;;
9860;SDS011;4969;52.304;4.968;2023-07-24T05:50:51;7.57;;;5.18;;
9860;SDS011;4969;52.304;4.968;2023-07-24T05:53:18;8.95;;;5.35;;
9860;SDS011;4969;52.304;4.968;2023-07-24T05:55:45;9.95;;;5.90;;
9860;SDS011;4969;52.304;4.968;2023-07-24T05:58:11;9.85;;;6.68;;
9860;SDS011;4969;52.304;4.968;2023-07-24T06:00:39;9.20;;;5.25;;
9860;SDS011;4969;52.304;4.968;2023-07-24T06:03:06;7.82;;;5.50;;
9860;SDS011;4969;52.304;4.968;2023-07-24T06:05:32;9.52;;;5.93;;
9860;SDS011;4969;52.304;4.968;2023-07-24T06:07:59;7.80;;;5.38;;
9860;SDS011;4969;52.304;4.968;2023-07-24T06:10:25;18.00;;;8.68;;
9860;SDS011;4969;52.304;4.968;2023-07-24T06:12:52;9.88;;;5.70;;
9860;SDS011;4969;52.304;4.968;2023-07-24T06:15:18;6.55;;;5.13;;
9860;SDS011;4969;52.304;4.968;2023-07-24T06:17:46;7.28;;;4.90;;
9860;SDS011;4969;52.304;4.968;2023-07-24T06:20:13;8.60;;;5.63;;
9860;SDS011;4969;52.304;4.968;2023-07-24T06:22:40;11.35;;;5.55;;
9860;SDS011;4969;52.304;4.968;2023-07-24T06:25:07;9.90;;;5.40;;
9860;SDS011;4969;52.304;4.968;2023-07-24T06:27:33;9.90;;;5.93;;
9860;SDS011;4969;52.304;4.968;2023-07-24T06:30:00;9.10;;;4.80;;
9860;SDS011;4969;52.304;4.968;2023-07-24T06:32:27;7.43;;;5.35;;
9860;SDS011;4969;52.304;4.968;2023-07-24T06:34:55;9.32;;;5.70;;
9860;SDS011;4969;52.304;4.968;2023-07-24T06:37:22;8.40;;;5.68;;
9860;SDS011;4969;52.304;4.968;2023-07-24T06:39:48;7.78;;;5.65;;
9860;SDS011;4969;52.304;4.968;2023-07-24T06:42:15;9.55;;;6.15;;
9860;SDS011;4969;52.304;4.968;2023-07-24T06:44:41;10.57;;;6.05;;
9860;SDS011;4969;52.304;4.968;2023-07-24T06:47:08;9.73;;;6.25;;
9860;SDS011;4969;52.304;4.968;2023-07-24T06:49:34;11.35;;;5.80;;
9860;SDS011;4969;52.304;4.968;2023-07-24T06:52:03;8.25;;;5.50;;
9860;SDS011;4969;52.304;4.968;2023-07-24T06:54:30;11.00;;;4.90;;
9860;SDS011;4969;52.304;4.968;2023-07-24T06:56:57;8.52;;;4.93;;
9860;SDS011;4969;52.304;4.968;2023-07-24T06:59:23;7.30;;;4.95;;
9860;SDS011;4969;52.304;4.968;2023-07-24T07:01:50;11.07;;;5.78;;
9860;SDS011;4969;52.304;4.968;2023-07-24T07:04:16;9.77;;;5.63;;
9860;SDS011;4969;52.304;4.968;2023-07-24T07:06:43;10.63;;;5.40;;
9860;SDS011;4969;52.304;4.968;2023-07-24T07:09:11;10.07;;;5.53;;
9860;SDS011;4969;52.304;4.968;2023-07-24T07:11:37;9.13;;;5.05;;
9860;SDS011;4969;52.304;4.968;2023-07-24T07:14:04;11.60;;;5.93;;
9860;SDS011;4969;52.304;4.968;2023-07-24T07:16:33;7.65;;;4.65;;
9860;SDS011;4969;52.304;4.968;2023-07-24T07:19:00;9.80;;;4.93;;
9860;SDS011;4969;52.304;4.968;2023-07-24T07:21:27;10.75;;;5.25;;
9860;SDS011;4969;52.304;4.968;2023-07-24T07:23:54;10.50;;;5.10;;
9860;SDS011;4969;52.304;4.968;2023-07-24T07:26:22;7.95;;;5.07;;
9860;SDS011;4969;52.304;4.968;2023-07-24T07:28:49;9.25;;;4.47;;
9860;SDS011;4969;52.304;4.968;2023-07-24T07:31:15;8.68;;;4.30;;
9860;SDS011;4969;52.304;4.968;2023-07-24T07:33:42;8.10;;;4.43;;
9860;SDS011;4969;52.304;4.968;2023-07-24T07:36:09;8.70;;;4.40;;
9860;SDS011;4969;52.304;4.968;2023-07-24T07:38:36;9.15;;;4.70;;
9860;SDS011;4969;52.304;4.968;2023-07-24T07:41:04;9.93;;;4.28;;
9860;SDS011;4969;52.304;4.968;2023-07-24T07:43:32;9.45;;;4.63;;
9860;SDS011;4969;52.304;4.968;2023-07-24T07:46:00;7.47;;;4.60;;
9860;SDS011;4969;52.304;4.968;2023-07-24T07:48:26;7.47;;;4.30;;
9860;SDS011;4969;52.304;4.968;2023-07-24T07:50:53;9.20;;;4.72;;
9860;SDS011;4969;52.304;4.968;2023-07-24T07:53:20;11.15;;;4.03;;
9860;SDS011;4969;52.304;4.968;2023-07-24T07:55:54;5.30;;;4.00;;
9860;SDS011;4969;52.304;4.968;2023-07-24T07:58:21;9.20;;;4.57;;
9860;SDS011;4969;52.304;4.968;2023-07-24T08:00:50;6.20;;;4.28;;
9860;SDS011;4969;52.304;4.968;2023-07-24T08:03:16;10.82;;;4.40;;
9860;SDS011;4969;52.304;4.968;2023-07-24T08:05:43;5.97;;;4.05;;
9860;SDS011;4969;52.304;4.968;2023-07-24T08:08:10;8.23;;;4.72;;
9860;SDS011;4969;52.304;4.968;2023-07-24T08:10:36;7.25;;;4.32;;
9860;SDS011;4969;52.304;4.968;2023-07-24T08:13:03;6.38;;;3.83;;
9860;SDS011;4969;52.304;4.968;2023-07-24T08:15:33;7.90;;;4.95;;
9860;SDS011;4969;52.304;4.968;2023-07-24T08:18:02;5.75;;;4.00;;
9860;SDS011;4969;52.304;4.968;2023-07-24T08:20:29;8.15;;;4.47;;
9860;SDS011;4969;52.304;4.968;2023-07-24T08:22:56;5.32;;;3.80;;
9860;SDS011;4969;52.304;4.968;2023-07-24T08:25:22;7.15;;;4.20;;
9860;SDS011;4969;52.304;4.968;2023-07-24T08:27:49;5.38;;;4.10;;
9860;SDS011;4969;52.304;4.968;2023-07-24T08:30:16;6.60;;;4.35;;
9860;SDS011;4969;52.304;4.968;2023-07-24T08:32:43;6.63;;;4.18;;
9860;SDS011;4969;52.304;4.968;2023-07-24T08:35:10;7.32;;;4.20;;
9860;SDS011;4969;52.304;4.968;2023-07-24T08:37:37;8.98;;;4.32;;
9860;SDS011;4969;52.304;4.968;2023-07-24T08:40:04;6.50;;;4.00;;
9860;SDS011;4969;52.304;4.968;2023-07-24T08:42:32;5.22;;;3.90;;
9860;SDS011;4969;52.304;4.968;2023-07-24T08:44:59;6.10;;;3.78;;
9860;SDS011;4969;52.304;4.968;2023-07-24T08:47:27;6.55;;;4.40;;
9860;SDS011;4969;52.304;4.968;2023-07-24T08:49:54;6.15;;;4.53;;
9860;SDS011;4969;52.304;4.968;2023-07-24T08:52:23;8.45;;;4.68;;
9860;SDS011;4969;52.304;4.968;2023-07-24T08:54:50;6.28;;;4.55;;
9860;SDS011;4969;52.304;4.968;2023-07-24T08:57:17;9.13;;;4.60;;
9860;SDS011;4969;52.304;4.968;2023-07-24T08:59:45;8.13;;;4.07;;
9860;SDS011;4969;52.304;4.968;2023-07-24T09:02:11;6.90;;;4.00;;
9860;SDS011;4969;52.304;4.968;2023-07-24T09:04:38;6.45;;;4.22;;
9860;SDS011;4969;52.304;4.968;2023-07-24T09:07:05;7.28;;;3.70;;
9860;SDS011;4969;52.304;4.968;2023-07-24T09:09:34;5.50;;;3.70;;
9860;SDS011;4969;52.304;4.968;2023-07-24T09:12:01;6.28;;;3.85;;
9860;SDS011;4969;52.304;4.968;2023-07-24T09:14:28;8.07;;;3.60;;
9860;SDS011;4969;52.304;4.968;2023-07-24T09:17:05;5.10;;;3.50;;
9860;SDS011;4969;52.304;4.968;2023-07-24T09:19:33;4.45;;;3.78;;
9860;SDS011;4969;52.304;4.968;2023-07-24T09:22:09;5.75;;;3.40;;
9860;SDS011;4969;52.304;4.968;2023-07-24T09:24:48;9.70;;;4.13;;
9860;SDS011;4969;52.304;4.968;2023-07-24T09:27:16;7.10;;;3.95;;
9860;SDS011;4969;52.304;4.968;2023-07-24T09:29:42;6.72;;;3.40;;
9860;SDS011;4969;52.304;4.968;2023-07-24T09:32:17;7.18;;;4.00;;
9860;SDS011;4969;52.304;4.968;2023-07-24T09:34:45;4.25;;;3.50;;
9860;SDS011;4969;52.304;4.968;2023-07-24T09:37:22;6.25;;;3.85;;
9860;SDS011;4969;52.304;4.968;2023-07-24T09:39:53;7.88;;;4.07;;
9860;SDS011;4969;52.304;4.968;2023-07-24T09:42:30;5.93;;;3.45;;
9860;SDS011;4969;52.304;4.968;2023-07-24T09:44:57;6.95;;;3.72;;
9860;SDS011;4969;52.304;4.968;2023-07-24T09:47:24;6.13;;;3.63;;
9860;SDS011;4969;52.304;4.968;2023-07-24T09:49:51;5.57;;;3.92;;
9860;SDS011;4969;52.304;4.968;2023-07-24T09:52:18;3.95;;;3.60;;
9860;SDS011;4969;52.304;4.968;2023-07-24T09:54:48;5.65;;;3.70;;
9860;SDS011;4969;52.304;4.968;2023-07-24T09:57:22;5.95;;;4.00;;
9860;SDS011;4969;52.304;4.968;2023-07-24T09:59:49;7.78;;;4.30;;
9860;SDS011;4969;52.304;4.968;2023-07-24T10:02:17;6.40;;;3.83;;
9860;SDS011;4969;52.304;4.968;2023-07-24T10:04:44;4.88;;;3.65;;
9860;SDS011;4969;52.304;4.968;2023-07-24T10:07:12;4.80;;;3.53;;
9860;SDS011;4969;52.304;4.968;2023-07-24T10:09:40;5.20;;;3.72;;
9860;SDS011;4969;52.304;4.968;2023-07-24T10:12:08;4.45;;;3.72;;
9860;SDS011;4969;52.304;4.968;2023-07-24T10:14:36;6.82;;;4.07;;
9860;SDS011;4969;52.304;4.968;2023-07-24T10:17:04;5.88;;;3.75;;
9860;SDS011;4969;52.304;4.968;2023-07-24T10:19:35;5.72;;;3.75;;
9860;SDS011;4969;52.304;4.968;2023-07-24T10:22:03;4.78;;;3.40;;
9860;SDS011;4969;52.304;4.968;2023-07-24T10:24:30;3.85;;;3.50;;
9860;SDS011;4969;52.304;4.968;2023-07-24T10:26:57;4.25;;;3.83;;
9860;SDS011;4969;52.304;4.968;2023-07-24T10:29:23;3.95;;;3.50;;
9860;SDS011;4969;52.304;4.968;2023-07-24T10:31:55;4.72;;;3.33;;
9860;SDS011;4969;52.304;4.968;2023-07-24T10:34:22;6.45;;;4.00;;
9860;SDS011;4969;52.304;4.968;2023-07-24T10:36:48;4.00;;;3.65;;
9860;SDS011;4969;52.304;4.968;2023-07-24T10:39:15;4.43;;;3.42;;
9860;SDS011;4969;52.304;4.968;2023-07-24T10:41:43;4.82;;;3.65;;
9860;SDS011;4969;52.304;4.968;2023-07-24T10:44:11;3.47;;;3.17;;
9860;SDS011;4969;52.304;4.968;2023-07-24T10:46:38;3.80;;;3.20;;
9860;SDS011;4969;52.304;4.968;2023-07-24T10:49:07;4.57;;;3.22;;
9860;SDS011;4969;52.304;4.968;2023-07-24T10:51:35;3.97;;;3.28;;
9860;SDS011;4969;52.304;4.968;2023-07-24T10:54:02;6.20;;;3.30;;
9860;SDS011;4969;52.304;4.968;2023-07-24T10:56:30;4.35;;;3.50;;
9860;SDS011;4969;52.304;4.968;2023-07-24T10:59:01;5.18;;;3.53;;
9860;SDS011;4969;52.304;4.968;2023-07-24T11:01:28;4.75;;;3.22;;
9860;SDS011;4969;52.304;4.968;2023-07-24T11:03:57;7.45;;;3.95;;
9860;SDS011;4969;52.304;4.968;2023-07-24T11:06:26;3.50;;;3.20;;
9860;SDS011;4969;52.304;4.968;2023-07-24T11:08:53;3.88;;;3.40;;
9860;SDS011;4969;52.304;4.968;2023-07-24T11:11:21;4.78;;;3.50;;
9860;SDS011;4969;52.304;4.968;2023-07-24T11:13:48;4.13;;;3.45;;
9860;SDS011;4969;52.304;4.968;2023-07-24T11:16:15;3.83;;;3.42;;
9860;SDS011;4969;52.304;4.968;2023-07-24T11:18:45;5.22;;;3.40;;
9860;SDS011;4969;52.304;4.968;2023-07-24T11:21:13;4.50;;;3.78;;
9860;SDS011;4969;52.304;4.968;2023-07-24T11:23:46;3.55;;;3.13;;
9860;SDS011;4969;52.304;4.968;2023-07-24T11:26:13;3.88;;;3.08;;
9860;SDS011;4969;52.304;4.968;2023-07-24T11:28:41;4.10;;;3.25;;
9860;SDS011;4969;52.304;4.968;2023-07-24T11:31:08;4.90;;;3.33;;
9860;SDS011;4969;52.304;4.968;2023-07-24T11:33:34;5.78;;;3.38;;
9860;SDS011;4969;52.304;4.968;2023-07-24T11:36:02;4.55;;;3.30;;
9860;SDS011;4969;52.304;4.968;2023-07-24T11:38:29;3.45;;;3.15;;
9860;SDS011;4969;52.304;4.968;2023-07-24T11:40:57;4.10;;;3.00;;
9860;SDS011;4969;52.304;4.968;2023-07-24T11:43:24;5.13;;;3.28;;
9860;SDS011;4969;52.304;4.968;2023-07-24T11:45:52;3.47;;;3.08;;
9860;SDS011;4969;52.304;4.968;2023-07-24T11:48:20;3.65;;;3.20;;
9860;SDS011;4969;52.304;4.968;2023-07-24T11:50:48;4.22;;;3.17;;
9860;SDS011;4969;52.304;4.968;2023-07-24T11:53:20;4.38;;;2.75;;
9860;SDS011;4969;52.304;4.968;2023-07-24T11:55:48;4.15;;;3.05;;
9860;SDS011;4969;52.304;4.968;2023-07-24T11:58:16;3.90;;;3.22;;
9860;SDS011;4969;52.304;4.968;2023-07-24T12:00:45;3.33;;;2.95;;
9860;SDS011;4969;52.304;4.968;2023-07-24T12:03:12;4.55;;;3.22;;
9860;SDS011;4969;52.304;4.968;2023-07-24T12:05:38;3.15;;;2.95;;
9860;SDS011;4969;52.304;4.968;2023-07-24T12:08:05;3.15;;;2.90;;
9860;SDS011;4969;52.304;4.968;2023-07-24T12:10:35;2.58;;;2.25;;
9860;SDS011;4969;52.304;4.968;2023-07-24T12:13:02;4.22;;;2.70;;
9860;SDS011;4969;52.304;4.968;2023-07-24T12:15:31;3.50;;;2.40;;
9860;SDS011;4969;52.304;4.968;2023-07-24T12:17:58;3.03;;;2.50;;
9860;SDS011;4969;52.304;4.968;2023-07-24T12:20:26;2.58;;;2.38;;
9860;SDS011;4969;52.304;4.968;2023-07-24T12:22:53;2.88;;;2.67;;
9860;SDS011;4969;52.304;4.968;2023-07-24T12:25:19;2.80;;;2.40;;
9860;SDS011;4969;52.304;4.968;2023-07-24T12:27:46;2.20;;;2.10;;
9860;SDS011;4969;52.304;4.968;2023-07-24T12:30:13;2.38;;;2.17;;
9860;SDS011;4969;52.304;4.968;2023-07-24T12:32:41;2.30;;;2.17;;
9860;SDS011;4969;52.304;4.968;2023-07-24T12:35:08;2.40;;;2.30;;
9860;SDS011;4969;52.304;4.968;2023-07-24T12:37:36;3.00;;;2.08;;
9860;SDS011;4969;52.304;4.968;2023-07-24T12:40:04;2.42;;;2.03;;
9860;SDS011;4969;52.304;4.968;2023-07-24T12:42:32;3.50;;;2.20;;
9860;SDS011;4969;52.304;4.968;2023-07-24T12:44:58;1.85;;;1.77;;
9860;SDS011;4969;52.304;4.968;2023-07-24T12:47:27;3.65;;;2.20;;
9860;SDS011;4969;52.304;4.968;2023-07-24T12:49:55;2.05;;;1.85;;
9860;SDS011;4969;52.304;4.968;2023-07-24T12:52:22;2.15;;;1.95;;
9860;SDS011;4969;52.304;4.968;2023-07-24T12:54:49;2.00;;;1.50;;
9860;SDS011;4969;52.304;4.968;2023-07-24T12:57:16;2.00;;;1.80;;
9860;SDS011;4969;52.304;4.968;2023-07-24T12:59:42;1.65;;;1.55;;
9860;SDS011;4969;52.304;4.968;2023-07-24T13:02:09;2.63;;;1.67;;
9860;SDS011;4969;52.304;4.968;2023-07-24T13:04:35;2.63;;;1.70;;
9860;SDS011;4969;52.304;4.968;2023-07-24T13:07:04;1.65;;;1.30;;
9860;SDS011;4969;52.304;4.968;2023-07-24T13:09:31;3.53;;;1.73;;
9860;SDS011;4969;52.304;4.968;2023-07-24T13:11:57;3.72;;;1.73;;
9860;SDS011;4969;52.304;4.968;2023-07-24T13:14:24;3.03;;;1.63;;
9860;SDS011;4969;52.304;4.968;2023-07-24T13:16:50;2.17;;;1.75;;
9860;SDS011;4969;52.304;4.968;2023-07-24T13:19:17;3.30;;;1.85;;
9860;SDS011;4969;52.304;4.968;2023-07-24T13:21:44;5.93;;;1.90;;
9860;SDS011;4969;52.304;4.968;2023-07-24T13:24:13;2.17;;;1.75;;
9860;SDS011;4969;52.304;4.968;2023-07-24T13:26:40;3.38;;;2.00;;
9860;SDS011;4969;52.304;4.968;2023-07-24T13:29:07;3.60;;;1.92;;
9860;SDS011;4969;52.304;4.968;2023-07-24T13:31:34;3.38;;;2.05;;
9860;SDS011;4969;52.304;4.968;2023-07-24T13:34:01;3.53;;;2.30;;
9860;SDS011;4969;52.304;4.968;2023-07-24T13:36:27;2.75;;;1.88;;
9860;SDS011;4969;52.304;4.968;2023-07-24T13:38:54;2.90;;;2.22;;
9860;SDS011;4969;52.304;4.968;2023-07-24T13:41:22;4.15;;;2.20;;
9860;SDS011;4969;52.304;4.968;2023-07-24T13:43:48;3.15;;;2.10;;
9860;SDS011;4969;52.304;4.968;2023-07-24T13:46:15;4.07;;;2.20;;
9860;SDS011;4969;52.304;4.968;2023-07-24T13:48:42;4.97;;;2.15;;
9860;SDS011;4969;52.304;4.968;2023-07-24T13:51:08;4.70;;;1.90;;
9860;SDS011;4969;52.304;4.968;2023-07-24T13:53:36;4.13;;;1.95;;
9860;SDS011;4969;52.304;4.968;2023-07-24T13:56:02;3.08;;;1.83;;
9860;SDS011;4969;52.304;4.968;2023-07-24T13:58:30;5.10;;;2.47;;
9860;SDS011;4969;52.304;4.968;2023-07-24T14:00:57;4.35;;;1.90;;
9860;SDS011;4969;52.304;4.968;2023-07-24T14:03:23;3.92;;;1.90;;
9860;SDS011;4969;52.304;4.968;2023-07-24T14:05:54;5.63;;;2.05;;
9860;SDS011;4969;52.304;4.968;2023-07-24T14:08:20;3.20;;;1.80;;
9860;SDS011;4969;52.304;4.968;2023-07-24T14:10:47;6.45;;;2.20;;
9860;SDS011;4969;52.304;4.968;2023-07-24T14:13:14;2.85;;;1.80;;
9860;SDS011;4969;52.304;4.968;2023-07-24T14:15:42;2.83;;;1.70;;
9860;SDS011;4969;52.304;4.968;2023-07-24T14:18:08;4.70;;;1.92;;
9860;SDS011;4969;52.304;4.968;2023-07-24T14:20:35;3.70;;;1.90;;
9860;SDS011;4969;52.304;4.968;2023-07-24T14:23:02;3.00;;;2.03;;
9860;SDS011;4969;52.304;4.968;2023-07-24T14:25:29;2.25;;;1.52;;
9860;SDS011;4969;52.304;4.968;2023-07-24T14:27:55;4.20;;;1.73;;
9860;SDS011;4969;52.304;4.968;2023-07-24T14:30:22;2.90;;;1.50;;
9860;SDS011;4969;52.304;4.968;2023-07-24T14:32:50;3.47;;;1.65;;
9860;SDS011;4969;52.304;4.968;2023-07-24T14:35:17;4.20;;;2.05;;
9860;SDS011;4969;52.304;4.968;2023-07-24T14:37:43;2.78;;;1.88;;
9860;SDS011;4969;52.304;4.968;2023-07-24T14:40:10;3.42;;;1.90;;
9860;SDS011;4969;52.304;4.968;2023-07-24T14:42:37;4.68;;;1.90;;
9860;SDS011;4969;52.304;4.968;2023-07-24T14:45:05;3.08;;;1.92;;
9860;SDS011;4969;52.304;4.968;2023-07-24T14:47:32;4.07;;;1.70;;
9860;SDS011;4969;52.304;4.968;2023-07-24T14:50:00;2.97;;;1.95;;
9860;SDS011;4969;52.304;4.968;2023-07-24T14:52:27;3.28;;;1.50;;
9860;SDS011;4969;52.304;4.968;2023-07-24T14:54:53;4.32;;;1.30;;
9860;SDS011;4969;52.304;4.968;2023-07-24T14:57:20;1.92;;;1.20;;
9860;SDS011;4969;52.304;4.968;2023-07-24T14:59:47;2.45;;;1.20;;
9860;SDS011;4969;52.304;4.968;2023-07-24T15:02:13;2.47;;;1.48;;
9860;SDS011;4969;52.304;4.968;2023-07-24T15:04:40;2.85;;;1.10;;
9860;SDS011;4969;52.304;4.968;2023-07-24T15:07:08;2.78;;;1.33;;
9860;SDS011;4969;52.304;4.968;2023-07-24T15:09:34;2.25;;;1.23;;
9860;SDS011;4969;52.304;4.968;2023-07-24T15:12:01;2.17;;;1.30;;
9860;SDS011;4969;52.304;4.968;2023-07-24T15:14:28;2.65;;;1.25;;
9860;SDS011;4969;52.304;4.968;2023-07-24T15:16:55;2.45;;;1.20;;
9860;SDS011;4969;52.304;4.968;2023-07-24T15:19:21;1.67;;;1.00;;